sensor_id;sensor_type;location;lat;lon;timestamp;P1;durP1;ratioP1;P2;durP2;ratioP2
23732;SDS011;12047;53.450;-2.286;2022-11-20T00:04:46;15.20;;;4.35;;
23732;SDS011;12047;53.450;-2.286;2022-11-20T00:09:47;27.27;;;11.65;;
23732;SDS011;12047;53.450;-2.286;2022-11-20T00:14:47;12.35;;;4.55;;
23732;SDS011;12047;53.450;-2.286;2022-11-20T00:19:48;14.23;;;6.22;;
23732;SDS011;12047;53.450;-2.286;2022-11-20T00:24:49;14.13;;;5.85;;
23732;SDS011;12047;53.450;-2.286;2022-11-20T00:29:49;10.07;;;4.05;;
23732;SDS011;12047;53.450;-2.286;2022-11-20T00:34:50;15.95;;;5.10;;
23732;SDS011;12047;53.450;-2.286;2022-11-20T00:39:50;23.15;;;8.20;;
23732;SDS011;12047;53.450;-2.286;2022-11-20T00:44:51;15.13;;;5.82;;
23732;SDS011;12047;53.450;-2.286;2022-11-20T00:49:51;17.15;;;5.20;;
23732;SDS011;12047;53.450;-2.286;2022-11-20T00:54:52;16.25;;;5.38;;
23732;SDS011;12047;53.450;-2.286;2022-11-20T00:59:53;11.02;;;5.50;;
23732;SDS011;12047;53.450;-2.286;2022-11-20T01:04:56;20.15;;;11.23;;
23732;SDS011;12047;53.450;-2.286;2022-11-20T01:09:56;13.35;;;7.32;;
23732;SDS011;12047;53.450;-2.286;2022-11-20T01:14:57;15.55;;;6.30;;
23732;SDS011;12047;53.450;-2.286;2022-11-20T01:19:58;19.73;;;6.15;;
23732;SDS011;12047;53.450;-2.286;2022-11-20T01:24:58;15.68;;;6.05;;
23732;SDS011;12047;53.450;-2.286;2022-11-20T01:29:59;13.18;;;6.10;;
23732;SDS011;12047;53.450;-2.286;2022-11-20T01:34:59;15.65;;;6.40;;
23732;SDS011;12047;53.450;-2.286;2022-11-20T01:40:00;18.40;;;6.35;;
23732;SDS011;12047;53.450;-2.286;2022-11-20T01:45:01;14.93;;;5.47;;
23732;SDS011;12047;53.450;-2.286;2022-11-20T01:50:15;13.80;;;5.00;;
23732;SDS011;12047;53.450;-2.286;2022-11-20T01:55:19;9.23;;;5.07;;
23732;SDS011;12047;53.450;-2.286;2022-11-20T02:00:23;18.70;;;5.40;;
23732;SDS011;12047;53.450;-2.286;2022-11-20T02:05:32;14.98;;;5.38;;
23732;SDS011;12047;53.450;-2.286;2022-11-20T02:10:45;15.38;;;5.47;;
23732;SDS011;12047;53.450;-2.286;2022-11-20T02:15:45;18.70;;;6.50;;
23732;SDS011;12047;53.450;-2.286;2022-11-20T02:20:48;14.93;;;6.10;;
23732;SDS011;12047;53.450;-2.286;2022-11-20T02:25:53;13.77;;;5.85;;
23732;SDS011;12047;53.450;-2.286;2022-11-20T02:30:55;12.10;;;4.80;;
23732;SDS011;12047;53.450;-2.286;2022-11-20T02:35:56;12.07;;;4.25;;
23732;SDS011;12047;53.450;-2.286;2022-11-20T02:40:57;5.15;;;3.45;;
23732;SDS011;12047;53.450;-2.286;2022-11-20T02:45:57;11.07;;;3.70;;
23732;SDS011;12047;53.450;-2.286;2022-11-20T02:50:58;9.68;;;3.28;;
23732;SDS011;12047;53.450;-2.286;2022-11-20T02:55:59;5.72;;;3.20;;
23732;SDS011;12047;53.450;-2.286;2022-11-20T03:00:59;10.77;;;3.13;;
23732;SDS011;12047;53.450;-2.286;2022-11-20T03:06:00;7.88;;;2.95;;
23732;SDS011;12047;53.450;-2.286;2022-11-20T03:11:04;5.47;;;2.80;;
23732;SDS011;12047;53.450;-2.286;2022-11-20T03:16:09;7.32;;;2.50;;
23732;SDS011;12047;53.450;-2.286;2022-11-20T03:21:12;7.63;;;2.72;;
23732;SDS011;12047;53.450;-2.286;2022-11-20T03:26:15;10.80;;;3.22;;
23732;SDS011;12047;53.450;-2.286;2022-11-20T03:31:22;6.30;;;2.63;;
23732;SDS011;12047;53.450;-2.286;2022-11-20T03:36:25;27.42;;;3.13;;
23732;SDS011;12047;53.450;-2.286;2022-11-20T03:41:27;4.38;;;2.17;;
23732;SDS011;12047;53.450;-2.286;2022-11-20T03:46:29;11.70;;;2.95;;
23732;SDS011;12047;53.450;-2.286;2022-11-20T03:51:31;7.00;;;2.72;;
23732;SDS011;12047;53.450;-2.286;2022-11-20T03:56:34;6.70;;;2.63;;
23732;SDS011;12047;53.450;-2.286;2022-11-20T04:01:37;4.72;;;2.88;;
23732;SDS011;12047;53.450;-2.286;2022-11-20T04:06:38;10.02;;;3.95;;
23732;SDS011;12047;53.450;-2.286;2022-11-20T04:11:39;28.83;;;5.30;;
23732;SDS011;12047;53.450;-2.286;2022-11-20T04:16:40;6.82;;;4.30;;
23732;SDS011;12047;53.450;-2.286;2022-11-20T04:21:42;9.02;;;5.43;;
23732;SDS011;12047;53.450;-2.286;2022-11-20T04:26:43;15.73;;;6.22;;
23732;SDS011;12047;53.450;-2.286;2022-11-20T04:31:44;11.68;;;6.13;;
23732;SDS011;12047;53.450;-2.286;2022-11-20T04:36:45;11.05;;;5.82;;
23732;SDS011;12047;53.450;-2.286;2022-11-20T04:41:45;11.45;;;6.22;;
23732;SDS011;12047;53.450;-2.286;2022-11-20T04:46:46;8.35;;;6.18;;
23732;SDS011;12047;53.450;-2.286;2022-11-20T04:51:46;25.38;;;7.07;;
23732;SDS011;12047;53.450;-2.286;2022-11-20T04:56:47;11.55;;;7.20;;
23732;SDS011;12047;53.450;-2.286;2022-11-20T05:01:48;11.82;;;7.57;;
23732;SDS011;12047;53.450;-2.286;2022-11-20T05:06:49;31.55;;;8.85;;
23732;SDS011;12047;53.450;-2.286;2022-11-20T05:11:50;12.20;;;8.73;;
23732;SDS011;12047;53.450;-2.286;2022-11-20T05:16:51;8.57;;;7.40;;
23732;SDS011;12047;53.450;-2.286;2022-11-20T05:21:51;13.40;;;8.48;;
23732;SDS011;12047;53.450;-2.286;2022-11-20T05:26:52;12.88;;;8.20;;
23732;SDS011;12047;53.450;-2.286;2022-11-20T05:31:53;15.75;;;8.85;;
23732;SDS011;12047;53.450;-2.286;2022-11-20T05:36:53;13.05;;;8.25;;
23732;SDS011;12047;53.450;-2.286;2022-11-20T05:41:54;12.07;;;9.00;;
23732;SDS011;12047;53.450;-2.286;2022-11-20T05:47:13;14.55;;;8.60;;
23732;SDS011;12047;53.450;-2.286;2022-11-20T05:52:16;12.63;;;9.02;;
23732;SDS011;12047;53.450;-2.286;2022-11-20T05:57:27;16.45;;;7.35;;
23732;SDS011;12047;53.450;-2.286;2022-11-20T06:02:28;11.75;;;6.25;;
23732;SDS011;12047;53.450;-2.286;2022-11-20T06:07:29;11.25;;;7.10;;
23732;SDS011;12047;53.450;-2.286;2022-11-20T06:12:32;14.15;;;7.25;;
23732;SDS011;12047;53.450;-2.286;2022-11-20T06:17:36;16.77;;;7.88;;
23732;SDS011;12047;53.450;-2.286;2022-11-20T06:22:36;12.73;;;8.00;;
23732;SDS011;12047;53.450;-2.286;2022-11-20T06:27:37;16.05;;;9.90;;
23732;SDS011;12047;53.450;-2.286;2022-11-20T06:32:38;13.18;;;9.30;;
23732;SDS011;12047;53.450;-2.286;2022-11-20T06:37:38;15.43;;;9.70;;
23732;SDS011;12047;53.450;-2.286;2022-11-20T06:42:39;14.85;;;9.57;;
23732;SDS011;12047;53.450;-2.286;2022-11-20T06:47:42;13.80;;;9.13;;
23732;SDS011;12047;53.450;-2.286;2022-11-20T06:52:43;13.90;;;10.13;;
23732;SDS011;12047;53.450;-2.286;2022-11-20T06:57:43;14.77;;;10.10;;
23732;SDS011;12047;53.450;-2.286;2022-11-20T07:02:44;17.77;;;9.48;;
23732;SDS011;12047;53.450;-2.286;2022-11-20T07:07:45;23.73;;;10.77;;
23732;SDS011;12047;53.450;-2.286;2022-11-20T07:12:48;22.15;;;11.27;;
23732;SDS011;12047;53.450;-2.286;2022-11-20T07:17:50;20.48;;;11.82;;
23732;SDS011;12047;53.450;-2.286;2022-11-20T07:22:55;19.65;;;9.95;;
23732;SDS011;12047;53.450;-2.286;2022-11-20T07:27:57;32.05;;;9.95;;
23732;SDS011;12047;53.450;-2.286;2022-11-20T07:33:00;21.85;;;6.60;;
23732;SDS011;12047;53.450;-2.286;2022-11-20T07:38:02;21.65;;;6.40;;
23732;SDS011;12047;53.450;-2.286;2022-11-20T07:43:03;22.17;;;5.68;;
23732;SDS011;12047;53.450;-2.286;2022-11-20T07:48:04;22.88;;;5.25;;
23732;SDS011;12047;53.450;-2.286;2022-11-20T07:53:04;21.17;;;4.90;;
23732;SDS011;12047;53.450;-2.286;2022-11-20T07:58:05;21.25;;;5.40;;
23732;SDS011;12047;53.450;-2.286;2022-11-20T08:03:09;26.23;;;4.70;;
23732;SDS011;12047;53.450;-2.286;2022-11-20T08:08:09;29.58;;;4.25;;
23732;SDS011;12047;53.450;-2.286;2022-11-20T08:13:10;21.88;;;4.57;;
23732;SDS011;12047;53.450;-2.286;2022-11-20T08:18:29;24.02;;;4.55;;
23732;SDS011;12047;53.450;-2.286;2022-11-20T08:23:30;27.77;;;3.85;;
23732;SDS011;12047;53.450;-2.286;2022-11-20T08:28:30;33.05;;;6.28;;
23732;SDS011;12047;53.450;-2.286;2022-11-20T08:33:31;31.08;;;5.30;;
23732;SDS011;12047;53.450;-2.286;2022-11-20T08:38:32;32.55;;;5.60;;
23732;SDS011;12047;53.450;-2.286;2022-11-20T08:43:39;33.35;;;5.35;;
23732;SDS011;12047;53.450;-2.286;2022-11-20T08:48:55;29.10;;;4.70;;
23732;SDS011;12047;53.450;-2.286;2022-11-20T08:54:01;35.35;;;5.53;;
23732;SDS011;12047;53.450;-2.286;2022-11-20T08:59:08;30.13;;;4.20;;
23732;SDS011;12047;53.450;-2.286;2022-11-20T09:04:20;34.50;;;4.50;;
23732;SDS011;12047;53.450;-2.286;2022-11-20T09:09:21;22.52;;;4.25;;
23732;SDS011;12047;53.450;-2.286;2022-11-20T09:14:22;31.20;;;4.22;;
23732;SDS011;12047;53.450;-2.286;2022-11-20T09:19:28;27.88;;;4.38;;
23732;SDS011;12047;53.450;-2.286;2022-11-20T09:24:29;31.23;;;4.70;;
23732;SDS011;12047;53.450;-2.286;2022-11-20T09:29:30;29.90;;;4.30;;
23732;SDS011;12047;53.450;-2.286;2022-11-20T09:34:30;23.77;;;3.40;;
23732;SDS011;12047;53.450;-2.286;2022-11-20T09:39:32;19.92;;;3.95;;
23732;SDS011;12047;53.450;-2.286;2022-11-20T09:55:09;22.80;;;3.28;;
23732;SDS011;12047;53.450;-2.286;2022-11-20T10:00:14;23.13;;;4.28;;
23732;SDS011;12047;53.450;-2.286;2022-11-20T10:17:03;31.35;;;5.05;;
23732;SDS011;12047;53.450;-2.286;2022-11-20T10:34:50;22.45;;;3.97;;
23732;SDS011;12047;53.450;-2.286;2022-11-20T10:46:39;18.65;;;3.63;;
23732;SDS011;12047;53.450;-2.286;2022-11-20T10:57:51;25.77;;;4.00;;
23732;SDS011;12047;53.450;-2.286;2022-11-20T11:14:52;22.10;;;3.55;;
23732;SDS011;12047;53.450;-2.286;2022-11-20T11:25:59;21.13;;;3.78;;
23732;SDS011;12047;53.450;-2.286;2022-11-20T11:31:01;21.95;;;3.45;;
23732;SDS011;12047;53.450;-2.286;2022-11-20T11:36:15;21.73;;;3.85;;
23732;SDS011;12047;53.450;-2.286;2022-11-20T11:42:00;22.58;;;3.13;;
23732;SDS011;12047;53.450;-2.286;2022-11-20T12:40:24;16.30;;;4.15;;
23732;SDS011;12047;53.450;-2.286;2022-11-20T12:56:21;24.77;;;4.40;;
23732;SDS011;12047;53.450;-2.286;2022-11-20T13:07:06;16.60;;;3.47;;
23732;SDS011;12047;53.450;-2.286;2022-11-20T13:12:33;20.48;;;3.40;;
23732;SDS011;12047;53.450;-2.286;2022-11-20T13:23:02;22.45;;;3.45;;
23732;SDS011;12047;53.450;-2.286;2022-11-20T13:33:22;18.00;;;3.37;;
23732;SDS011;12047;53.450;-2.286;2022-11-20T13:38:26;21.45;;;3.35;;
23732;SDS011;12047;53.450;-2.286;2022-11-20T13:43:42;21.33;;;3.38;;
23732;SDS011;12047;53.450;-2.286;2022-11-20T13:48:50;19.52;;;3.22;;
23732;SDS011;12047;53.450;-2.286;2022-11-20T14:04:38;20.20;;;4.20;;
23732;SDS011;12047;53.450;-2.286;2022-11-20T14:09:53;25.25;;;3.70;;
23732;SDS011;12047;53.450;-2.286;2022-11-20T14:14:58;22.17;;;3.30;;
23732;SDS011;12047;53.450;-2.286;2022-11-20T14:20:00;21.83;;;3.47;;
23732;SDS011;12047;53.450;-2.286;2022-11-20T14:25:06;15.65;;;2.85;;
23732;SDS011;12047;53.450;-2.286;2022-11-20T14:41:54;10.77;;;2.13;;
23732;SDS011;12047;53.450;-2.286;2022-11-20T14:47:30;11.10;;;1.90;;
23732;SDS011;12047;53.450;-2.286;2022-11-20T14:58:58;8.50;;;1.60;;
23732;SDS011;12047;53.450;-2.286;2022-11-20T15:33:07;5.75;;;1.55;;
23732;SDS011;12047;53.450;-2.286;2022-11-20T15:56:23;4.65;;;1.95;;
23732;SDS011;12047;53.450;-2.286;2022-11-20T16:01:30;8.20;;;2.17;;
23732;SDS011;12047;53.450;-2.286;2022-11-20T16:12:47;10.80;;;4.30;;
23732;SDS011;12047;53.450;-2.286;2022-11-20T16:42:21;12.52;;;7.72;;
23732;SDS011;12047;53.450;-2.286;2022-11-20T16:52:52;10.40;;;4.73;;
23732;SDS011;12047;53.450;-2.286;2022-11-20T16:58:02;8.82;;;4.15;;
23732;SDS011;12047;53.450;-2.286;2022-11-20T17:03:03;13.48;;;6.95;;
23732;SDS011;12047;53.450;-2.286;2022-11-20T17:08:04;16.33;;;9.23;;
23732;SDS011;12047;53.450;-2.286;2022-11-20T17:19:13;8.88;;;4.25;;
23732;SDS011;12047;53.450;-2.286;2022-11-20T17:24:14;9.80;;;3.42;;
23732;SDS011;12047;53.450;-2.286;2022-11-20T17:29:16;8.07;;;3.17;;
23732;SDS011;12047;53.450;-2.286;2022-11-20T17:34:36;8.45;;;2.60;;
23732;SDS011;12047;53.450;-2.286;2022-11-20T17:39:48;9.25;;;4.10;;
23732;SDS011;12047;53.450;-2.286;2022-11-20T17:44:49;8.35;;;2.50;;
23732;SDS011;12047;53.450;-2.286;2022-11-20T17:49:49;8.35;;;2.53;;
23732;SDS011;12047;53.450;-2.286;2022-11-20T17:54:50;9.32;;;2.80;;
23732;SDS011;12047;53.450;-2.286;2022-11-20T17:59:54;6.93;;;3.22;;
23732;SDS011;12047;53.450;-2.286;2022-11-20T18:05:07;9.00;;;4.20;;
23732;SDS011;12047;53.450;-2.286;2022-11-20T18:15:51;7.28;;;3.60;;
23732;SDS011;12047;53.450;-2.286;2022-11-20T18:20:52;10.45;;;4.15;;
23732;SDS011;12047;53.450;-2.286;2022-11-20T18:25:58;9.90;;;4.10;;
23732;SDS011;12047;53.450;-2.286;2022-11-20T18:42:37;11.50;;;5.03;;
23732;SDS011;12047;53.450;-2.286;2022-11-20T18:48:30;15.13;;;9.32;;
23732;SDS011;12047;53.450;-2.286;2022-11-20T18:59:03;8.63;;;3.00;;
23732;SDS011;12047;53.450;-2.286;2022-11-20T19:04:09;10.65;;;3.28;;
23732;SDS011;12047;53.450;-2.286;2022-11-20T19:09:11;15.48;;;3.65;;
23732;SDS011;12047;53.450;-2.286;2022-11-20T19:14:13;44.50;;;4.53;;
23732;SDS011;12047;53.450;-2.286;2022-11-20T19:19:14;15.27;;;6.10;;
23732;SDS011;12047;53.450;-2.286;2022-11-20T19:24:15;14.80;;;7.60;;
23732;SDS011;12047;53.450;-2.286;2022-11-20T19:29:15;21.05;;;12.93;;
23732;SDS011;12047;53.450;-2.286;2022-11-20T19:34:16;24.77;;;11.85;;
23732;SDS011;12047;53.450;-2.286;2022-11-20T19:39:17;15.02;;;7.15;;
23732;SDS011;12047;53.450;-2.286;2022-11-20T19:44:17;22.10;;;12.43;;
23732;SDS011;12047;53.450;-2.286;2022-11-20T19:49:18;19.52;;;10.50;;
23732;SDS011;12047;53.450;-2.286;2022-11-20T19:54:19;21.88;;;11.35;;
23732;SDS011;12047;53.450;-2.286;2022-11-20T19:59:20;17.55;;;8.32;;
23732;SDS011;12047;53.450;-2.286;2022-11-20T20:04:20;14.00;;;5.85;;
23732;SDS011;12047;53.450;-2.286;2022-11-20T20:09:21;12.90;;;5.78;;
23732;SDS011;12047;53.450;-2.286;2022-11-20T20:14:22;11.07;;;4.35;;
23732;SDS011;12047;53.450;-2.286;2022-11-20T20:19:23;17.08;;;6.30;;
23732;SDS011;12047;53.450;-2.286;2022-11-20T20:24:24;19.48;;;6.47;;
23732;SDS011;12047;53.450;-2.286;2022-11-20T20:29:24;14.40;;;4.45;;
23732;SDS011;12047;53.450;-2.286;2022-11-20T20:34:25;15.57;;;4.40;;
23732;SDS011;12047;53.450;-2.286;2022-11-20T20:39:28;14.60;;;4.15;;
23732;SDS011;12047;53.450;-2.286;2022-11-20T20:44:29;14.23;;;4.97;;
23732;SDS011;12047;53.450;-2.286;2022-11-20T20:49:49;11.02;;;4.28;;
23732;SDS011;12047;53.450;-2.286;2022-11-20T20:54:49;13.90;;;4.57;;
23732;SDS011;12047;53.450;-2.286;2022-11-20T20:59:50;14.73;;;4.57;;
23732;SDS011;12047;53.450;-2.286;2022-11-20T21:04:54;14.38;;;4.75;;
23732;SDS011;12047;53.450;-2.286;2022-11-20T21:09:55;23.13;;;5.32;;
23732;SDS011;12047;53.450;-2.286;2022-11-20T21:14:58;15.90;;;4.10;;
23732;SDS011;12047;53.450;-2.286;2022-11-20T21:20:07;17.75;;;3.97;;
23732;SDS011;12047;53.450;-2.286;2022-11-20T21:25:29;13.38;;;4.55;;
23732;SDS011;12047;53.450;-2.286;2022-11-20T21:30:29;13.32;;;4.60;;
23732;SDS011;12047;53.450;-2.286;2022-11-20T21:35:32;19.02;;;6.32;;
23732;SDS011;12047;53.450;-2.286;2022-11-20T21:40:34;12.88;;;4.07;;
23732;SDS011;12047;53.450;-2.286;2022-11-20T21:45:38;18.67;;;6.85;;
23732;SDS011;12047;53.450;-2.286;2022-11-20T21:50:39;13.75;;;4.65;;
23732;SDS011;12047;53.450;-2.286;2022-11-20T21:55:39;12.93;;;4.68;;
23732;SDS011;12047;53.450;-2.286;2022-11-20T22:24:50;14.07;;;6.88;;
23732;SDS011;12047;53.450;-2.286;2022-11-20T22:41:33;19.63;;;8.98;;
23732;SDS011;12047;53.450;-2.286;2022-11-20T22:46:58;17.20;;;6.72;;
23732;SDS011;12047;53.450;-2.286;2022-11-20T22:52:32;18.20;;;7.97;;
23732;SDS011;12047;53.450;-2.286;2022-11-20T22:57:39;16.00;;;7.05;;
23732;SDS011;12047;53.450;-2.286;2022-11-20T23:02:43;14.27;;;6.88;;
23732;SDS011;12047;53.450;-2.286;2022-11-20T23:07:45;18.95;;;8.57;;
23732;SDS011;12047;53.450;-2.286;2022-11-20T23:12:56;17.95;;;6.97;;
23732;SDS011;12047;53.450;-2.286;2022-11-20T23:17:57;12.30;;;5.88;;
23732;SDS011;12047;53.450;-2.286;2022-11-20T23:23:07;16.20;;;6.55;;
23732;SDS011;12047;53.450;-2.286;2022-11-20T23:28:16;11.50;;;6.07;;
23732;SDS011;12047;53.450;-2.286;2022-11-20T23:33:48;11.65;;;6.63;;
23732;SDS011;12047;53.450;-2.286;2022-11-20T23:38:57;11.68;;;5.47;;
23732;SDS011;12047;53.450;-2.286;2022-11-20T23:44:10;11.73;;;6.40;;
23732;SDS011;12047;53.450;-2.286;2022-11-20T23:54:19;13.65;;;6.40;;
23732;SDS011;12047;53.450;-2.286;2022-11-20T23:59:20;16.27;;;9.02;;
